createdAt,value
2022-12-08T00:02:02.938Z,17.58
2022-12-08T00:04:51.602Z,19.20
2022-12-08T00:07:39.005Z,18.35
2022-12-08T00:10:39.597Z,17.23
2022-12-08T00:12:56.662Z,17.55
2022-12-08T00:15:25.026Z,16.42
2022-12-08T00:17:53.363Z,18.00
2022-12-08T00:20:21.958Z,16.95
2022-12-08T00:22:51.684Z,15.88
2022-12-08T00:25:20.064Z,16.83
2022-12-08T00:27:48.394Z,16.40
2022-12-08T00:30:16.802Z,16.38
2022-12-08T00:32:45.107Z,15.90
2022-12-08T00:35:13.487Z,15.88
2022-12-08T00:37:41.816Z,16.08
2022-12-08T00:40:12.242Z,16.35
2022-12-08T00:42:40.577Z,16.25
2022-12-08T00:45:09.248Z,16.88
2022-12-08T00:47:37.735Z,16.47
2022-12-08T00:50:06.668Z,16.15
2022-12-08T00:52:35.247Z,16.25
2022-12-08T00:55:03.792Z,15.30
2022-12-08T00:57:34.027Z,17.10
2022-12-08T01:00:02.777Z,16.73
2022-12-08T01:02:33.262Z,17.25
2022-12-08T01:05:01.639Z,18.05
2022-12-08T01:07:30.024Z,17.40
2022-12-08T01:09:58.722Z,17.70
2022-12-08T01:12:27.073Z,17.75
2022-12-08T01:15:00.766Z,17.73
2022-12-08T01:17:30.741Z,17.90
2022-12-08T01:19:59.102Z,18.80
2022-12-08T01:22:27.521Z,19.50
2022-12-08T01:24:55.876Z,20.45
2022-12-08T01:27:24.192Z,20.10
2022-12-08T01:29:52.679Z,21.83
2022-12-08T01:32:22.377Z,21.02
2022-12-08T01:34:50.711Z,22.77
2022-12-08T01:37:19.042Z,22.77
2022-12-08T01:39:47.407Z,23.25
2022-12-08T01:42:25.002Z,25.03
2022-12-08T01:44:58.310Z,23.42
2022-12-08T01:47:30.959Z,24.25
2022-12-08T01:49:59.612Z,25.60
2022-12-08T01:52:30.946Z,25.33
2022-12-08T01:55:02.465Z,25.17
2022-12-08T01:57:32.466Z,24.80
2022-12-08T02:00:03.112Z,24.95
2022-12-08T02:02:36.092Z,24.52
2022-12-08T02:05:05.088Z,24.70
2022-12-08T02:07:33.544Z,26.25
2022-12-08T02:10:02.843Z,25.30
2022-12-08T02:12:31.442Z,23.93
2022-12-08T02:15:05.055Z,25.40
2022-12-08T02:17:39.925Z,25.20
2022-12-08T02:20:18.532Z,25.73
2022-12-08T02:22:50.331Z,25.40
2022-12-08T02:25:22.431Z,25.10
2022-12-08T02:28:01.140Z,25.87
2022-12-08T02:30:35.327Z,26.33
2022-12-08T02:33:21.682Z,25.60
2022-12-08T02:35:56.188Z,24.88
2022-12-08T02:38:28.718Z,24.30
2022-12-08T02:41:01.701Z,24.83
2022-12-08T02:43:31.610Z,25.00
2022-12-08T02:46:03.249Z,26.23
2022-12-08T02:48:32.093Z,25.53
2022-12-08T02:51:01.823Z,25.45
2022-12-08T02:53:32.250Z,25.00
2022-12-08T02:56:05.090Z,26.73
2022-12-08T02:58:43.353Z,25.05
2022-12-08T03:01:21.511Z,24.92
2022-12-08T03:03:53.171Z,23.90
2022-12-08T03:06:27.434Z,22.88
2022-12-08T03:08:58.464Z,23.63
2022-12-08T03:11:29.269Z,23.60
2022-12-08T03:13:59.820Z,23.45
2022-12-08T03:16:29.145Z,23.05
2022-12-08T03:19:01.367Z,21.83
2022-12-08T03:21:32.259Z,22.45
2022-12-08T03:24:01.126Z,24.13
2022-12-08T03:26:32.085Z,22.63
2022-12-08T03:29:00.592Z,23.00
2022-12-08T03:31:30.696Z,23.13
2022-12-08T03:34:00.431Z,24.08
2022-12-08T03:36:29.206Z,23.05
2022-12-08T03:38:59.024Z,24.27
2022-12-08T03:41:27.782Z,22.35
2022-12-08T03:43:57.136Z,23.67
2022-12-08T03:48:53.991Z,20.95
2022-12-08T03:51:22.374Z,21.77
2022-12-08T03:53:51.112Z,21.33
2022-12-08T03:56:24.761Z,21.55
2022-12-08T03:58:53.173Z,20.63
2022-12-08T04:01:21.843Z,21.38
2022-12-08T04:03:50.278Z,21.48
2022-12-08T04:06:19.107Z,21.52
2022-12-08T04:08:47.471Z,21.55
2022-12-08T04:11:16.024Z,21.25
2022-12-08T04:13:46.017Z,19.45
2022-12-08T04:16:17.104Z,19.92
2022-12-08T04:18:45.728Z,18.95
2022-12-08T04:21:14.071Z,19.38
2022-12-08T04:23:42.497Z,19.30
2022-12-08T04:26:11.039Z,17.77
2022-12-08T04:28:39.384Z,18.55
2022-12-08T04:31:09.303Z,18.60
2022-12-08T04:33:37.686Z,19.25
2022-12-08T04:36:07.387Z,18.10
2022-12-08T04:38:36.135Z,18.33
2022-12-08T04:41:04.485Z,18.75
2022-12-08T04:43:32.853Z,17.93
2022-12-08T04:46:01.273Z,18.70
2022-12-08T04:48:31.005Z,18.17
2022-12-08T04:50:59.319Z,16.80
2022-12-08T04:53:27.881Z,18.27
2022-12-08T04:55:56.225Z,17.02
2022-12-08T04:58:24.862Z,17.58
2022-12-08T05:00:53.370Z,18.33
2022-12-08T05:03:28.318Z,16.97
2022-12-08T05:06:00.960Z,17.67
2022-12-08T05:08:29.473Z,18.27
2022-12-08T05:11:03.462Z,17.20
2022-12-08T05:13:32.196Z,18.17
2022-12-08T05:16:07.394Z,17.05
2022-12-08T05:18:36.241Z,18.20
2022-12-08T05:21:06.757Z,18.33
2022-12-08T05:23:35.151Z,18.08
2022-12-08T05:26:03.581Z,17.42
2022-12-08T05:28:41.261Z,17.83
2022-12-08T05:31:10.975Z,18.13
2022-12-08T05:33:39.424Z,17.90
2022-12-08T05:36:10.017Z,17.65
2022-12-08T05:38:38.606Z,18.15
2022-12-08T05:41:07.753Z,17.45
2022-12-08T05:43:36.137Z,17.98
2022-12-08T05:46:04.599Z,17.90
2022-12-08T05:48:33.081Z,18.05
2022-12-08T05:51:01.964Z,17.33
2022-12-08T05:53:31.682Z,18.60
2022-12-08T05:56:00.022Z,17.83
2022-12-08T05:58:28.384Z,17.67
2022-12-08T06:00:56.804Z,19.05
2022-12-08T06:03:25.248Z,18.08
2022-12-08T06:05:53.655Z,18.00
2022-12-08T06:08:22.250Z,18.95
2022-12-08T06:10:52.036Z,18.55
2022-12-08T06:13:20.384Z,17.73
2022-12-08T06:15:48.730Z,18.45
2022-12-08T06:18:17.110Z,18.88
2022-12-08T06:20:45.445Z,20.17
2022-12-08T06:23:13.809Z,19.88
2022-12-08T06:25:42.138Z,21.17
2022-12-08T06:28:11.876Z,20.73
2022-12-08T06:30:40.238Z,19.73
2022-12-08T06:33:09.011Z,20.63
2022-12-08T06:35:37.306Z,21.05
2022-12-08T06:38:05.651Z,21.17
2022-12-08T06:40:34.301Z,21.80
2022-12-08T06:43:02.924Z,20.25
2022-12-08T06:45:32.783Z,19.50
2022-12-08T06:48:02.721Z,21.40
2022-12-08T06:50:32.572Z,20.05
2022-12-08T06:53:05.228Z,20.83
2022-12-08T06:55:57.988Z,19.25
2022-12-08T06:58:22.797Z,20.17
2022-12-08T07:00:52.548Z,18.85
2022-12-08T07:03:21.026Z,18.50
2022-12-08T07:05:49.357Z,18.77
2022-12-08T07:08:17.812Z,18.67
2022-12-08T07:10:46.209Z,18.73
2022-12-08T07:13:14.562Z,18.23
2022-12-08T07:15:42.879Z,18.10
2022-12-08T07:18:12.659Z,18.73
2022-12-08T07:20:40.973Z,17.23
2022-12-08T07:23:09.289Z,18.53
2022-12-08T07:25:37.646Z,18.20
2022-12-08T07:28:09.778Z,17.48
2022-12-08T07:30:38.212Z,18.00
2022-12-08T07:33:06.787Z,17.40
2022-12-08T07:35:36.546Z,17.20
2022-12-08T07:38:06.168Z,17.38
2022-12-08T07:40:34.880Z,16.20
2022-12-08T07:43:03.227Z,16.93
2022-12-08T07:45:32.031Z,14.05
2022-12-08T07:48:00.689Z,14.03
2022-12-08T07:50:29.102Z,15.00
2022-12-08T07:52:58.810Z,14.43
2022-12-08T07:55:27.190Z,14.97
2022-12-08T07:57:55.516Z,13.90
2022-12-08T08:00:23.966Z,14.20
2022-12-08T08:02:52.343Z,14.77
2022-12-08T08:05:21.136Z,14.30
2022-12-08T08:07:49.556Z,13.80
2022-12-08T08:10:19.344Z,14.13
2022-12-08T08:12:47.789Z,14.07
2022-12-08T08:15:17.428Z,14.13
2022-12-08T08:17:45.751Z,16.20
2022-12-08T08:20:14.784Z,16.10
2022-12-08T08:22:43.109Z,15.55
2022-12-08T08:25:11.450Z,15.18
2022-12-08T08:27:41.193Z,15.70
2022-12-08T08:30:12.951Z,13.55
2022-12-08T08:32:43.748Z,15.40
2022-12-08T08:35:12.100Z,15.20
2022-12-08T08:37:43.141Z,14.40
2022-12-08T08:40:15.557Z,14.27
2022-12-08T08:42:45.537Z,14.27
2022-12-08T08:45:13.916Z,15.27
2022-12-08T08:47:42.268Z,15.43
2022-12-08T08:50:13.396Z,15.73
2022-12-08T08:52:41.753Z,15.50
2022-12-08T08:55:10.455Z,15.97
2022-12-08T08:57:38.961Z,16.00
2022-12-08T09:00:10.207Z,16.83
2022-12-08T09:02:38.947Z,18.13
2022-12-08T09:05:08.030Z,19.08
2022-12-08T09:07:36.583Z,19.75
2022-12-08T09:10:05.540Z,20.27
2022-12-08T09:12:34.249Z,20.42
2022-12-08T09:15:02.642Z,20.27
2022-12-08T09:17:32.339Z,20.73
2022-12-08T09:20:01.344Z,21.48
2022-12-08T09:22:29.936Z,22.02
2022-12-08T09:24:58.286Z,22.70
2022-12-08T09:27:26.717Z,23.15
2022-12-08T09:29:55.190Z,22.67
2022-12-08T09:32:23.518Z,23.08
2022-12-08T09:34:54.267Z,23.00
2022-12-08T09:37:22.709Z,24.17
2022-12-08T09:39:51.097Z,23.83
2022-12-08T09:42:27.491Z,22.67
2022-12-08T09:44:59.953Z,22.53
2022-12-08T09:47:35.581Z,21.63
2022-12-08T09:50:08.666Z,23.20
2022-12-08T09:52:39.997Z,23.08
2022-12-08T09:55:13.706Z,23.15
2022-12-08T09:57:42.059Z,24.27
2022-12-08T10:00:13.045Z,22.42
2022-12-08T10:02:41.388Z,24.33
2022-12-08T10:05:14.759Z,22.35
2022-12-08T10:07:46.708Z,21.75
2022-12-08T10:10:23.063Z,21.17
2022-12-08T10:12:56.041Z,20.87
2022-12-08T10:15:34.877Z,19.60
2022-12-08T10:18:04.704Z,20.47
2022-12-08T10:20:38.441Z,21.17
2022-12-08T10:23:09.796Z,21.23
2022-12-08T10:25:39.856Z,21.88
2022-12-08T10:28:08.258Z,20.83
2022-12-08T10:30:36.600Z,22.17
2022-12-08T10:33:05.073Z,23.73
2022-12-08T10:35:45.905Z,23.27
2022-12-08T10:38:22.701Z,22.80
2022-12-08T10:40:52.571Z,22.67
2022-12-08T10:43:23.883Z,24.88
2022-12-08T10:45:52.935Z,24.20
2022-12-08T10:48:22.865Z,25.77
2022-12-08T10:50:56.672Z,24.77
2022-12-08T10:53:26.066Z,25.60
2022-12-08T10:55:55.330Z,25.85
2022-12-08T10:58:27.903Z,25.70
2022-12-08T11:00:57.433Z,25.48
2022-12-08T11:03:28.548Z,24.83
2022-12-08T11:06:10.505Z,25.75
2022-12-08T11:08:46.234Z,25.98
2022-12-08T11:11:14.993Z,26.17
2022-12-08T11:13:43.817Z,26.85
2022-12-08T11:16:13.966Z,26.10
2022-12-08T11:18:43.818Z,25.45
2022-12-08T11:21:14.804Z,25.23
2022-12-08T11:23:44.632Z,25.33
2022-12-08T11:26:19.631Z,27.50
2022-12-08T11:28:48.080Z,25.90
2022-12-08T11:31:21.143Z,25.42
2022-12-08T11:33:50.569Z,25.27
2022-12-08T11:36:22.266Z,25.00
2022-12-08T11:38:53.238Z,24.60
2022-12-08T11:41:23.571Z,24.25
2022-12-08T11:43:54.818Z,23.83
2022-12-08T11:46:24.203Z,23.45
2022-12-08T11:48:54.399Z,24.33
2022-12-08T11:51:30.941Z,22.65
2022-12-08T11:54:07.405Z,23.92
2022-12-08T11:56:38.266Z,22.02
2022-12-08T11:59:12.389Z,21.80
2022-12-08T12:01:42.641Z,21.67
2022-12-08T12:04:14.603Z,20.33
2022-12-08T12:06:57.746Z,20.10
2022-12-08T12:09:32.526Z,22.40
2022-12-08T12:12:15.721Z,20.80
2022-12-08T12:15:11.434Z,20.75
2022-12-08T12:17:45.061Z,21.77
2022-12-08T12:20:16.021Z,21.10
2022-12-08T12:22:45.933Z,20.73
2022-12-08T12:25:20.015Z,18.20
2022-12-08T12:27:50.478Z,18.20
2022-12-08T12:30:24.211Z,17.38
2022-12-08T12:32:54.557Z,16.45
2022-12-08T12:35:27.822Z,15.65
2022-12-08T12:37:58.949Z,16.50
2022-12-08T12:40:30.377Z,16.70
2022-12-08T12:43:15.105Z,15.57
2022-12-08T12:45:45.757Z,15.50
2022-12-08T12:48:25.466Z,15.05
2022-12-08T12:50:56.303Z,14.70
2022-12-08T12:53:43.100Z,15.80
2022-12-08T12:56:13.140Z,15.75
2022-12-08T12:58:42.814Z,16.13
2022-12-08T13:01:29.951Z,16.70
2022-12-08T13:04:05.888Z,16.95
2022-12-08T13:06:35.853Z,15.82
2022-12-08T13:09:04.277Z,17.00
2022-12-08T13:11:48.061Z,16.45
2022-12-08T13:14:28.102Z,17.70
2022-12-08T13:16:57.041Z,16.48
2022-12-08T13:19:25.648Z,17.02
2022-12-08T13:21:54.027Z,17.92
2022-12-08T13:24:36.458Z,18.27
2022-12-08T13:27:23.428Z,18.70
2022-12-08T13:30:20.097Z,19.02
2022-12-08T13:35:49.472Z,20.33
2022-12-08T13:38:19.022Z,19.90
2022-12-08T13:40:48.210Z,19.77
2022-12-08T13:43:19.611Z,18.00
2022-12-08T13:46:48.738Z,17.70
2022-12-08T13:50:05.824Z,16.92
2022-12-08T13:53:41.694Z,17.67
2022-12-08T13:55:12.219Z,17.20
2022-12-08T13:57:23.212Z,18.30
2022-12-08T13:59:51.638Z,17.85
2022-12-08T14:02:26.660Z,18.15
2022-12-08T14:07:45.914Z,12.95
2022-12-08T14:10:18.147Z,13.07
2022-12-08T14:12:48.453Z,12.87
2022-12-08T14:15:17.711Z,11.45
2022-12-08T14:17:54.262Z,12.40
2022-12-08T14:20:25.056Z,12.60
2022-12-08T14:22:53.891Z,12.50
2022-12-08T14:25:22.837Z,12.05
2022-12-08T14:27:51.365Z,11.82
2022-12-08T14:30:22.086Z,11.82
2022-12-08T14:32:51.237Z,12.07
2022-12-08T14:35:25.601Z,12.10
2022-12-08T14:37:56.853Z,11.48
2022-12-08T14:40:28.689Z,11.70
2022-12-08T14:43:08.496Z,12.15
2022-12-08T14:45:47.394Z,13.52
2022-12-08T14:48:26.822Z,13.45
2022-12-08T14:51:02.361Z,14.13
2022-12-08T14:53:33.138Z,13.90
2022-12-08T14:56:01.732Z,14.27
2022-12-08T14:58:31.562Z,13.52
2022-12-08T15:01:00.980Z,15.45
2022-12-08T15:03:32.133Z,14.93
2022-12-08T15:06:05.050Z,16.20
2022-12-08T15:08:33.524Z,14.10
2022-12-08T15:11:14.219Z,16.88
2022-12-08T15:13:45.868Z,15.05
2022-12-08T15:16:26.205Z,17.27
2022-12-08T15:19:03.335Z,16.73
2022-12-08T15:21:33.895Z,16.63
2022-12-08T15:24:02.320Z,17.73
2022-12-08T15:26:31.570Z,17.10
2022-12-08T15:28:59.922Z,17.67
2022-12-08T15:31:28.332Z,17.80
2022-12-08T15:33:56.722Z,18.30
2022-12-08T15:36:25.131Z,18.55
2022-12-08T15:38:54.867Z,19.08
2022-12-08T15:41:23.327Z,18.60
2022-12-08T15:43:51.703Z,17.73
2022-12-08T15:46:20.059Z,17.20
2022-12-08T15:48:49.755Z,17.73
2022-12-08T15:51:20.833Z,18.60
2022-12-08T15:53:49.194Z,18.88
2022-12-08T15:56:27.433Z,18.17
2022-12-08T15:58:57.910Z,17.50
2022-12-08T16:01:26.916Z,17.40
2022-12-08T16:09:34.406Z,18.25
2022-12-08T16:12:22.189Z,17.70
2022-12-08T16:17:39.496Z,18.10
2022-12-08T16:20:09.380Z,18.08
2022-12-08T16:23:03.136Z,17.52
2022-12-08T16:25:28.826Z,19.25
2022-12-08T16:28:23.273Z,19.95
2022-12-08T16:30:51.823Z,19.48
2022-12-08T16:33:21.157Z,20.38
2022-12-08T16:35:49.772Z,19.48
2022-12-08T16:38:18.297Z,18.85
2022-12-08T16:41:05.020Z,18.08
2022-12-08T16:43:35.588Z,18.73
2022-12-08T16:46:04.331Z,18.67
2022-12-08T16:48:32.747Z,20.13
2022-12-08T16:51:01.083Z,20.67
2022-12-08T16:53:29.497Z,20.17
2022-12-08T16:55:57.832Z,20.48
2022-12-08T16:58:26.198Z,20.27
2022-12-08T17:00:55.956Z,20.10
2022-12-08T17:03:24.363Z,20.98
2022-12-08T17:05:52.718Z,20.17
2022-12-08T17:08:21.425Z,19.92
2022-12-08T17:11:07.166Z,20.05
2022-12-08T17:13:35.649Z,19.85
2022-12-08T17:16:09.538Z,21.63
2022-12-08T17:18:38.019Z,20.83
2022-12-08T17:21:11.102Z,19.95
2022-12-08T17:23:39.848Z,21.90
2022-12-08T17:26:08.409Z,21.40
2022-12-08T17:28:59.345Z,21.80
2022-12-08T17:31:29.854Z,21.58
2022-12-08T17:33:59.833Z,22.35
2022-12-08T17:36:28.209Z,20.65
2022-12-08T17:38:57.061Z,20.83
2022-12-08T17:41:25.456Z,19.30
2022-12-08T17:43:53.839Z,20.33
2022-12-08T17:46:22.845Z,22.80
2022-12-08T17:48:52.934Z,19.45
2022-12-08T17:51:21.639Z,20.92
2022-12-08T17:53:50.005Z,21.27
2022-12-08T17:56:19.581Z,20.50
2022-12-08T17:58:53.997Z,21.92
2022-12-08T18:01:23.579Z,19.60
2022-12-08T18:03:53.562Z,21.17
2022-12-08T18:06:24.631Z,21.10
2022-12-08T18:08:55.323Z,20.77
2022-12-08T18:11:23.905Z,20.50
2022-12-08T18:13:52.549Z,21.23
2022-12-08T18:16:21.651Z,19.08
2022-12-08T18:18:50.172Z,19.17
2022-12-08T18:21:23.646Z,19.70
2022-12-08T18:23:52.523Z,19.63
2022-12-08T18:26:20.932Z,19.92
2022-12-08T18:28:49.515Z,19.77
2022-12-08T18:31:19.321Z,19.65
2022-12-08T18:33:48.717Z,19.63
2022-12-08T18:36:17.878Z,19.67
2022-12-08T18:38:48.114Z,21.27
2022-12-08T18:41:17.169Z,21.23
2022-12-08T18:43:45.875Z,20.67
2022-12-08T18:46:14.906Z,20.17
2022-12-08T18:48:44.024Z,19.15
2022-12-08T18:51:12.476Z,19.40
2022-12-08T18:53:41.186Z,20.33
2022-12-08T18:56:11.003Z,20.02
2022-12-08T18:58:39.406Z,20.50
2022-12-08T19:01:07.963Z,19.58
2022-12-08T19:03:58.495Z,19.40
2022-12-08T19:06:32.159Z,20.13
2022-12-08T19:09:00.661Z,20.77
2022-12-08T19:11:30.413Z,20.60
2022-12-08T19:13:58.921Z,20.90
2022-12-08T19:16:27.355Z,20.67
2022-12-08T19:18:55.912Z,20.40
2022-12-08T19:21:24.870Z,20.45
2022-12-08T19:23:55.758Z,21.25
2022-12-08T19:26:24.338Z,21.13
2022-12-08T19:28:54.256Z,20.70
2022-12-08T19:31:22.822Z,20.00
2022-12-08T19:33:51.396Z,21.70
2022-12-08T19:36:20.835Z,20.05
2022-12-08T19:39:07.306Z,20.58
2022-12-08T19:41:53.690Z,19.67
2022-12-08T19:44:41.696Z,18.90
2022-12-08T19:47:10.318Z,19.40
2022-12-08T19:49:38.804Z,19.45
2022-12-08T19:52:07.698Z,18.65
2022-12-08T19:54:36.328Z,17.98
2022-12-08T19:57:05.110Z,18.97
2022-12-08T19:59:34.898Z,18.83
2022-12-08T20:02:03.733Z,18.92
2022-12-08T20:04:32.134Z,18.08
2022-12-08T20:07:00.539Z,19.03
2022-12-08T20:09:28.881Z,19.50
2022-12-08T20:11:57.338Z,17.63
2022-12-08T20:14:25.808Z,17.37
2022-12-08T20:16:55.637Z,18.80
2022-12-08T20:19:24.873Z,17.67
2022-12-08T20:21:53.291Z,17.73
2022-12-08T20:24:21.712Z,18.13
2022-12-08T20:26:50.176Z,17.90
2022-12-08T20:29:18.842Z,17.65
2022-12-08T20:31:47.498Z,18.47
2022-12-08T20:34:17.789Z,17.30
2022-12-08T20:36:47.068Z,18.67
2022-12-08T20:39:17.131Z,17.47
2022-12-08T20:41:46.417Z,18.47
2022-12-08T20:44:15.049Z,18.30
2022-12-08T20:46:49.042Z,19.00
2022-12-08T20:49:19.818Z,20.00
2022-12-08T20:51:48.307Z,19.73
2022-12-08T20:54:16.656Z,18.77
2022-12-08T20:56:48.495Z,20.63
2022-12-08T20:59:18.213Z,20.67
2022-12-08T21:01:46.848Z,20.23
2022-12-08T21:04:15.515Z,19.27
2022-12-08T21:06:45.474Z,20.13
2022-12-08T21:09:14.115Z,19.80
2022-12-08T21:11:42.755Z,19.70
2022-12-08T21:14:11.372Z,19.30
2022-12-08T21:16:39.874Z,18.85
2022-12-08T21:19:08.476Z,17.83
2022-12-08T21:21:37.101Z,19.30
2022-12-08T21:24:07.509Z,18.38
2022-12-08T21:26:36.014Z,18.60
2022-12-08T21:29:04.849Z,18.90
2022-12-08T21:31:33.740Z,17.73
2022-12-08T21:34:03.209Z,18.02
2022-12-08T21:36:31.701Z,17.63
2022-12-08T21:39:01.119Z,17.55
2022-12-08T21:41:49.036Z,17.75
2022-12-08T21:44:19.526Z,17.20
2022-12-08T21:46:48.297Z,18.38
2022-12-08T21:49:17.326Z,15.88
2022-12-08T21:51:45.929Z,17.83
2022-12-08T21:54:18.595Z,17.67
2022-12-08T21:56:50.099Z,17.55
2022-12-08T21:59:19.819Z,17.98
2022-12-08T22:01:48.948Z,18.45
2022-12-08T22:04:18.503Z,17.25
2022-12-08T22:06:47.428Z,18.05
2022-12-08T22:09:16.056Z,18.63
2022-12-08T22:11:44.907Z,19.30
2022-12-08T22:14:15.461Z,18.83
2022-12-08T22:16:44.542Z,18.17
2022-12-08T22:19:13.543Z,18.35
2022-12-08T22:21:42.136Z,19.58
2022-12-08T22:24:10.802Z,19.08
2022-12-08T22:26:39.362Z,19.23
2022-12-08T22:29:08.068Z,18.77
2022-12-08T22:31:38.375Z,17.17
2022-12-08T22:34:07.157Z,19.13
2022-12-08T22:36:36.498Z,18.63
2022-12-08T22:39:05.657Z,17.92
2022-12-08T22:41:34.841Z,18.38
2022-12-08T22:44:03.504Z,19.45
2022-12-08T22:46:32.404Z,19.67
2022-12-08T22:49:02.875Z,19.48
2022-12-08T22:51:31.450Z,20.23
2022-12-08T22:54:00.213Z,19.23
2022-12-08T22:56:29.022Z,18.85
2022-12-08T22:58:57.512Z,19.80
2022-12-08T23:01:26.775Z,19.65
2022-12-08T23:03:55.717Z,19.40
2022-12-08T23:06:26.492Z,19.88
2022-12-08T23:08:55.515Z,19.17
2022-12-08T23:11:25.285Z,19.52
2022-12-08T23:13:53.673Z,18.77
2022-12-08T23:16:22.143Z,18.25
2022-12-08T23:18:50.554Z,18.48
2022-12-08T23:21:20.344Z,18.35
2022-12-08T23:23:50.138Z,19.70
2022-12-08T23:26:20.308Z,17.75
2022-12-08T23:28:48.718Z,19.65
2022-12-08T23:31:17.515Z,20.08
2022-12-08T23:33:46.309Z,18.95
2022-12-08T23:36:15.652Z,19.17
2022-12-08T23:38:44.253Z,20.25
2022-12-08T23:41:15.110Z,18.88
2022-12-08T23:43:45.508Z,20.67
2022-12-08T23:46:14.440Z,18.23
2022-12-08T23:48:43.762Z,19.60
2022-12-08T23:51:12.202Z,20.00
2022-12-08T23:53:40.823Z,19.60
2022-12-08T23:56:10.319Z,20.27
2022-12-08T23:58:40.312Z,19.20
